Time;durP1;ratioP1;P1;durP2;ratioP2;P2;SDS_P1;SDS_P2;PMS_P1;PMS_P2;Temp;Humidity;BMP_temperature;BMP_pressure;BME280_temperature;BME280_humidity;BME280_pressure;Samples;Min_cycle;Max_cycle;Signal;HPM_P1;HPM_P2
2021/12/10 00:01:14;;;;;;;14.00;10.40;;;3.60;99.90;;;;;;5053457;28;20178;-86
2021/12/10 00:03:47;;;;;;;11.47;8.90;;;3.60;99.90;;;;;;5054620;28;20257;-86
2021/12/10 00:06:25;;;;;;;18.87;9.07;;;3.60;99.90;;;;;;5054029;28;20202;-86
2021/12/10 00:08:55;;;;;;;14.83;9.37;;;3.50;99.90;;;;;;5053354;28;20645;-86
2021/12/10 00:11:37;;;;;;;13.60;8.73;;;3.50;99.90;;;;;;5054169;28;20174;-86
2021/12/10 00:14:05;;;;;;;16.73;8.90;;;3.50;99.90;;;;;;5054022;28;20206;-86
2021/12/10 00:16:32;;;;;;;14.47;8.70;;;3.50;99.90;;;;;;5053033;28;20205;-86
2021/12/10 00:19:12;;;;;;;10.77;8.77;;;3.50;99.90;;;;;;5053961;28;20319;-86
2021/12/10 00:21:39;;;;;;;12.70;9.17;;;3.50;99.90;;;;;;5054427;28;20154;-86
2021/12/10 00:24:05;;;;;;;14.23;8.47;;;3.60;99.90;;;;;;5052819;28;20201;-86
2021/12/10 00:26:31;;;;;;;9.67;8.20;;;3.60;99.90;;;;;;5053308;28;20194;-86
2021/12/10 00:29:02;;;;;;;11.10;8.80;;;3.70;99.90;;;;;;5053316;28;20180;-86
2021/12/10 00:34:10;;;;;;;11.07;8.03;;;3.70;99.90;;;;;;5054388;28;20246;-86
2021/12/10 00:36:36;;;;;;;10.03;9.00;;;3.70;99.90;;;;;;5052913;28;20189;-86
2021/12/10 00:39:09;;;;;;;12.17;9.07;;;3.70;99.90;;;;;;5052829;28;20651;-86
2021/12/10 00:41:36;;;;;;;11.77;9.13;;;3.70;99.90;;;;;;5052808;28;20201;-86
2021/12/10 00:44:04;;;;;;;12.13;9.07;;;3.70;99.90;;;;;;5053582;28;20188;-86
2021/12/10 00:46:30;;;;;;;12.27;8.77;;;3.70;99.90;;;;;;5052811;28;20202;-86
2021/12/10 00:48:56;;;;;;;11.47;8.70;;;3.70;99.90;;;;;;5052658;28;20201;-86
2021/12/10 00:51:22;;;;;;;11.10;8.63;;;3.80;99.90;;;;;;5052610;28;20209;-86
2021/12/10 00:53:48;;;;;;;9.97;8.00;;;3.90;99.90;;;;;;5052898;28;20178;-86
2021/12/10 00:56:13;;;;;;;10.90;8.97;;;3.90;99.90;;;;;;5052438;28;20216;-86
2021/12/10 00:58:40;;;;;;;12.40;8.90;;;3.90;99.90;;;;;;5053267;28;20210;-86
2021/12/10 01:01:10;;;;;;;9.63;7.50;;;3.90;99.90;;;;;;5053534;28;20177;-86
2021/12/10 01:03:40;;;;;;;12.20;8.20;;;3.80;99.90;;;;;;5052460;28;20170;-86
2021/12/10 01:06:09;;;;;;;10.30;8.33;;;3.80;99.90;;;;;;5052880;28;20197;-86
2021/12/10 01:08:37;;;;;;;11.77;8.60;;;3.90;99.90;;;;;;5054131;28;20182;-86
2021/12/10 01:11:27;;;;;;;10.17;8.27;;;3.90;99.90;;;;;;5053471;28;20202;-86
2021/12/10 01:13:58;;;;;;;9.70;8.70;;;3.80;99.90;;;;;;5052278;28;20261;-86
2021/12/10 01:24:50;;;;;;;12.47;9.20;;;3.80;99.90;;;;;;5053877;28;20659;-86
2021/12/10 01:27:33;;;;;;;10.67;9.60;;;3.90;99.90;;;;;;5052528;28;20198;-86
2021/12/10 01:30:11;;;;;;;11.10;9.30;;;3.90;99.90;;;;;;5053807;28;20155;-86
2021/12/10 01:32:40;;;;;;;10.73;9.60;;;3.90;99.90;;;;;;5052329;28;20272;-86
2021/12/10 01:35:09;;;;;;;11.13;9.93;;;3.90;99.90;;;;;;5053126;28;20182;-86
2021/12/10 01:37:35;;;;;;;10.70;9.60;;;3.80;99.90;;;;;;5054820;28;20734;-86
2021/12/10 01:40:02;;;;;;;12.27;10.13;;;3.90;99.90;;;;;;5056096;28;20216;-86
2021/12/10 01:42:37;;;;;;;14.90;10.27;;;3.80;99.90;;;;;;5056393;28;20263;-86
2021/12/10 01:45:17;;;;;;;11.93;9.90;;;3.80;99.90;;;;;;5057337;28;20158;-86
2021/12/10 01:47:44;;;;;;;10.67;9.57;;;3.90;99.90;;;;;;5056895;28;20181;-86
2021/12/10 01:50:10;;;;;;;10.77;9.57;;;3.80;99.90;;;;;;5056371;28;20209;-86
2021/12/10 01:52:35;;;;;;;11.03;9.67;;;3.90;99.90;;;;;;5055822;28;20189;-86
2021/12/10 01:55:03;;;;;;;10.73;9.63;;;3.90;99.90;;;;;;5055830;28;20182;-86
2021/12/10 01:57:32;;;;;;;11.03;9.30;;;3.80;99.90;;;;;;5055917;28;20220;-86
2021/12/10 01:59:58;;;;;;;11.83;8.80;;;3.80;99.90;;;;;;5055931;28;20229;-86
2021/12/10 02:02:30;;;;;;;16.37;9.03;;;3.80;99.90;;;;;;5056849;28;20182;-86
2021/12/10 02:04:56;;;;;;;11.53;8.73;;;3.80;99.90;;;;;;5056299;28;20171;-86
2021/12/10 02:07:26;;;;;;;10.47;9.47;;;3.80;99.90;;;;;;5056358;28;20198;-85
2021/12/10 02:09:52;;;;;;;11.17;9.50;;;3.80;99.90;;;;;;5056199;28;20181;-85
2021/12/10 02:12:19;;;;;;;10.83;9.57;;;3.70;99.90;;;;;;5056154;28;20200;-86
2021/12/10 02:14:58;;;;;;;11.43;9.80;;;3.80;99.90;;;;;;5057613;28;20178;-86
2021/12/10 02:17:26;;;;;;;12.57;9.17;;;3.80;99.90;;;;;;5055408;28;20209;-86
2021/12/10 02:19:51;;;;;;;12.70;9.13;;;3.80;99.90;;;;;;5055375;28;20182;-86
2021/12/10 02:22:17;;;;;;;11.63;9.67;;;3.80;99.90;;;;;;5055758;28;20316;-86
2021/12/10 02:24:42;;;;;;;10.17;9.17;;;3.80;99.90;;;;;;5055628;28;20170;-86
2021/12/10 02:27:08;;;;;;;10.40;9.20;;;3.80;99.90;;;;;;5055608;28;20206;-86
2021/12/10 02:29:38;;;;;;;11.53;9.37;;;3.80;99.90;;;;;;5056167;28;20204;-86
2021/12/10 02:32:07;;;;;;;11.87;9.17;;;3.80;99.90;;;;;;5056428;28;20183;-86
2021/12/10 02:34:33;;;;;;;9.47;8.67;;;3.70;99.90;;;;;;5055192;28;20185;-86
2021/12/10 02:36:58;;;;;;;11.63;9.57;;;3.80;99.90;;;;;;5055471;28;20206;-86
2021/12/10 02:39:26;;;;;;;10.40;9.30;;;3.80;99.90;;;;;;5055260;28;20261;-86
2021/12/10 02:41:52;;;;;;;10.47;9.33;;;3.70;99.90;;;;;;5055059;28;20178;-86
2021/12/10 02:44:27;;;;;;;10.87;9.77;;;3.80;99.90;;;;;;5055075;28;20182;-86
2021/12/10 02:46:54;;;;;;;9.57;8.57;;;3.70;99.90;;;;;;5055388;28;20208;-85
2021/12/10 02:49:20;;;;;;;11.60;9.17;;;3.70;99.90;;;;;;5054853;28;20190;-86
2021/12/10 02:51:46;;;;;;;9.63;8.63;;;3.80;99.90;;;;;;5054832;28;20236;-86
2021/12/10 02:54:16;;;;;;;11.57;9.00;;;3.90;99.90;;;;;;5054923;28;20186;-86
2021/12/10 02:56:42;;;;;;;9.53;8.43;;;3.80;99.90;;;;;;5054794;28;20218;-85
2021/12/10 02:59:08;;;;;;;9.13;7.57;;;3.90;99.90;;;;;;5055783;28;20197;-85
2021/12/10 03:01:44;;;;;;;10.07;8.47;;;3.90;99.90;;;;;;5055526;28;20201;-85
2021/12/10 03:04:10;;;;;;;9.50;8.10;;;3.90;99.90;;;;;;5055385;28;20174;-85
2021/12/10 03:06:44;;;;;;;9.17;8.20;;;3.90;99.90;;;;;;5054586;28;20201;-86
2021/12/10 03:09:10;;;;;;;9.50;8.00;;;4.00;99.90;;;;;;5054542;28;20170;-86
2021/12/10 03:11:38;;;;;;;9.50;8.47;;;4.00;99.90;;;;;;5054357;28;20189;-86
2021/12/10 03:14:10;;;;;;;9.40;7.50;;;4.00;99.90;;;;;;5055977;28;20182;-86
2021/12/10 03:16:38;;;;;;;8.43;7.63;;;4.00;99.90;;;;;;5055469;28;20222;-86
2021/12/10 03:19:05;;;;;;;8.47;7.57;;;4.00;99.90;;;;;;5054398;28;20248;-86
2021/12/10 03:21:31;;;;;;;8.90;7.90;;;4.00;99.90;;;;;;5054271;28;20182;-86
2021/12/10 03:23:56;;;;;;;8.20;7.37;;;3.90;99.90;;;;;;5054619;28;20232;-86
2021/12/10 03:26:22;;;;;;;8.63;7.73;;;3.90;99.90;;;;;;5054568;28;20202;-86
2021/12/10 03:28:51;;;;;;;8.07;7.23;;;3.90;99.90;;;;;;5054273;28;20292;-86
2021/12/10 03:31:19;;;;;;;8.03;7.23;;;4.00;99.90;;;;;;5054176;28;20178;-86
2021/12/10 03:33:46;;;;;;;7.70;7.00;;;3.90;99.90;;;;;;5055041;28;20261;-86
2021/12/10 03:36:13;;;;;;;8.80;7.63;;;3.90;99.90;;;;;;5054022;28;20206;-86
2021/12/10 03:38:40;;;;;;;8.20;7.40;;;3.90;99.90;;;;;;5054334;28;20202;-86
2021/12/10 03:41:06;;;;;;;7.20;6.50;;;3.90;99.90;;;;;;5054833;28;20174;-86
2021/12/10 03:43:32;;;;;;;7.47;6.67;;;4.00;99.90;;;;;;5053980;28;20201;-86
2021/12/10 03:46:00;;;;;;;6.80;6.20;;;3.90;99.90;;;;;;5055155;28;20799;-86
2021/12/10 03:48:29;;;;;;;7.13;6.43;;;3.90;99.90;;;;;;5053813;28;20182;-86
2021/12/10 03:50:56;;;;;;;6.83;6.13;;;3.90;99.90;;;;;;5053867;28;20201;-86
2021/12/10 03:53:22;;;;;;;7.17;6.43;;;3.90;99.90;;;;;;5053701;28;20178;-86
2021/12/10 03:55:49;;;;;;;7.43;6.67;;;3.90;99.90;;;;;;5053970;28;20209;-86
2021/12/10 03:58:15;;;;;;;8.67;7.20;;;3.90;99.90;;;;;;5054411;28;20297;-86
2021/12/10 04:00:45;;;;;;;7.17;6.47;;;4.00;99.90;;;;;;5053133;28;20179;-86
2021/12/10 04:03:13;;;;;;;7.97;6.40;;;4.00;99.90;;;;;;5053469;28;20163;-86
2021/12/10 04:05:39;;;;;;;7.70;6.90;;;3.90;99.90;;;;;;5054282;28;20544;-86
2021/12/10 04:08:06;;;;;;;8.07;6.90;;;4.00;99.90;;;;;;5053542;28;20185;-86
2021/12/10 04:10:32;;;;;;;7.13;6.43;;;4.00;99.90;;;;;;5053281;28;20186;-86
2021/12/10 04:12:57;;;;;;;8.87;6.77;;;4.00;99.90;;;;;;5053470;28;20269;-86
2021/12/10 04:15:24;;;;;;;7.37;6.77;;;4.00;99.90;;;;;;5054156;28;20237;-86
2021/12/10 04:17:52;;;;;;;7.90;7.20;;;4.00;99.90;;;;;;5053594;28;20209;-86
2021/12/10 04:20:20;;;;;;;7.80;7.10;;;3.90;99.90;;;;;;5053306;28;20181;-86
2021/12/10 04:22:46;;;;;;;8.60;7.80;;;3.90;99.90;;;;;;5053199;28;20178;-86
2021/12/10 04:25:15;;;;;;;8.30;7.43;;;3.90;99.90;;;;;;5053120;28;20228;-86
2021/12/10 04:27:42;;;;;;;9.00;7.60;;;3.70;99.90;;;;;;5054355;28;20252;-86
2021/12/10 04:30:10;;;;;;;8.37;7.40;;;3.80;99.90;;;;;;5054455;28;20178;-85
2021/12/10 04:32:36;;;;;;;10.00;8.80;;;3.80;99.90;;;;;;5056479;28;20182;-85
2021/12/10 04:35:03;;;;;;;23.37;15.73;;;3.80;99.90;;;;;;5055251;28;20185;-85
2021/12/10 04:37:29;;;;;;;19.17;15.27;;;3.70;99.90;;;;;;5054271;28;20206;-85
2021/12/10 04:39:55;;;;;;;11.90;10.67;;;3.80;99.90;;;;;;5054484;28;20185;-85
2021/12/10 04:42:23;;;;;;;11.50;9.60;;;3.80;99.90;;;;;;5053991;28;20710;-85
2021/12/10 04:44:55;;;;;;;10.83;9.50;;;3.70;99.90;;;;;;5054641;28;20178;-85
2021/12/10 04:47:21;;;;;;;9.30;8.30;;;3.80;99.90;;;;;;5054173;28;20229;-86
2021/12/10 04:49:48;;;;;;;10.40;7.80;;;3.70;99.90;;;;;;5054568;28;20252;-86
2021/12/10 04:52:13;;;;;;;7.80;6.93;;;3.80;99.90;;;;;;5054367;28;20269;-86
2021/12/10 04:54:40;;;;;;;11.23;7.07;;;3.80;99.90;;;;;;5054443;28;20206;-86
2021/12/10 04:57:06;;;;;;;6.97;6.23;;;3.80;99.90;;;;;;5053817;28;20585;-86
2021/12/10 04:59:34;;;;;;;8.60;6.70;;;3.90;99.90;;;;;;5054144;28;20178;-86
2021/12/10 05:02:02;;;;;;;7.70;6.73;;;3.90;99.90;;;;;;5053933;28;20660;-86
2021/12/10 05:04:28;;;;;;;8.60;6.60;;;3.90;99.90;;;;;;5054551;28;20178;-86
2021/12/10 05:06:54;;;;;;;9.73;6.10;;;3.90;99.90;;;;;;5054812;28;20202;-86
2021/12/10 05:09:22;;;;;;;9.70;6.23;;;3.90;99.90;;;;;;5053468;28;20205;-85
2021/12/10 05:11:49;;;;;;;10.53;6.77;;;4.00;99.90;;;;;;5052737;28;20178;-84
2021/12/10 05:14:16;;;;;;;9.90;6.80;;;3.90;99.90;;;;;;5054339;28;20189;-84
2021/12/10 05:16:45;;;;;;;7.70;6.40;;;3.90;99.90;;;;;;5053629;28;20198;-85
2021/12/10 05:19:13;;;;;;;10.43;6.23;;;3.90;99.90;;;;;;5053679;28;20174;-85
2021/12/10 05:21:47;;;;;;;9.63;6.20;;;3.90;99.90;;;;;;5053180;28;20193;-85
2021/12/10 05:24:14;;;;;;;11.30;6.23;;;3.90;99.90;;;;;;5053026;28;20169;-85
2021/12/10 05:26:40;;;;;;;10.70;6.20;;;3.90;99.90;;;;;;5054214;28;20235;-84
2021/12/10 05:29:08;;;;;;;9.27;6.50;;;3.90;99.90;;;;;;5053742;28;20702;-85
2021/12/10 05:31:35;;;;;;;9.17;5.67;;;3.90;99.90;;;;;;5052935;28;20176;-84
2021/12/10 05:34:00;;;;;;;9.97;6.13;;;3.80;99.90;;;;;;5053393;28;20182;-83
2021/12/10 05:36:27;;;;;;;13.43;6.93;;;3.80;99.90;;;;;;5052713;28;20205;-84
2021/12/10 05:38:53;;;;;;;13.07;6.57;;;3.90;99.90;;;;;;5053075;28;20309;-84
2021/12/10 05:41:19;;;;;;;10.50;6.43;;;3.90;99.90;;;;;;5053059;28;20261;-83
2021/12/10 05:43:44;;;;;;;13.23;6.00;;;3.90;99.90;;;;;;5052810;28;20176;-81
2021/12/10 05:46:12;;;;;;;8.23;6.30;;;3.90;99.90;;;;;;5052836;28;20198;-83
2021/12/10 05:48:39;;;;;;;8.43;6.17;;;3.80;99.90;;;;;;5053914;28;20214;-82
2021/12/10 05:51:05;;;;;;;7.77;6.33;;;3.90;99.90;;;;;;5052974;28;20181;-82
2021/12/10 05:53:30;;;;;;;10.63;6.83;;;3.80;99.90;;;;;;5053287;28;20185;-82
2021/12/10 05:55:56;;;;;;;9.93;6.73;;;3.70;99.90;;;;;;5053364;28;20205;-84
2021/12/10 05:58:22;;;;;;;13.40;6.20;;;3.80;99.90;;;;;;5053072;28;20568;-83
2021/12/10 06:00:51;;;;;;;15.03;6.33;;;3.80;99.90;;;;;;5052794;28;20196;-83
2021/12/10 06:03:17;;;;;;;11.00;6.63;;;3.80;99.90;;;;;;5053203;28;20227;-83
2021/12/10 06:05:44;;;;;;;13.40;6.07;;;3.70;99.90;;;;;;5052272;28;20199;-83
2021/12/10 06:08:10;;;;;;;8.80;5.37;;;3.80;99.90;;;;;;5053233;28;20178;-83
2021/12/10 06:10:37;;;;;;;10.13;5.83;;;3.80;99.90;;;;;;5052512;28;20179;-82
2021/12/10 06:13:05;;;;;;;8.47;5.53;;;3.80;99.90;;;;;;5052270;28;20543;-82
2021/12/10 06:15:31;;;;;;;14.63;5.70;;;3.80;99.90;;;;;;5053029;28;20190;-83
2021/12/10 06:17:57;;;;;;;7.17;5.50;;;3.80;99.90;;;;;;5052799;28;20214;-83
2021/12/10 06:20:32;;;;;;;9.17;5.67;;;3.80;99.90;;;;;;5052817;28;20273;-83
2021/12/10 06:22:59;;;;;;;8.57;5.17;;;3.80;99.90;;;;;;5053861;28;20178;-83
2021/12/10 06:25:29;;;;;;;13.50;6.00;;;3.80;99.90;;;;;;5055695;28;20182;-86
2021/12/10 06:27:55;;;;;;;12.77;5.17;;;3.80;99.90;;;;;;5055453;28;20170;-85
2021/12/10 06:30:28;;;;;;;8.10;5.57;;;3.80;99.90;;;;;;5055391;28;20193;-85
2021/12/10 06:32:54;;;;;;;14.23;6.00;;;3.80;99.90;;;;;;5055432;28;20181;-83
2021/12/10 06:35:25;;;;;;;10.07;5.77;;;3.80;99.90;;;;;;5055227;28;20174;-84
2021/12/10 06:37:53;;;;;;;11.33;4.80;;;3.80;99.90;;;;;;5056160;28;20240;-85
2021/12/10 06:40:21;;;;;;;8.40;5.40;;;3.80;99.90;;;;;;5056019;28;20178;-85
2021/12/10 06:42:47;;;;;;;7.33;4.67;;;3.80;99.90;;;;;;5055421;28;20201;-84
2021/12/10 06:45:16;;;;;;;12.60;4.70;;;3.70;99.90;;;;;;5056229;28;20177;-84
2021/12/10 06:47:47;;;;;;;10.20;4.90;;;3.70;99.90;;;;;;5055086;28;20182;-83
2021/12/10 06:50:15;;;;;;;12.10;5.63;;;3.70;99.90;;;;;;5056160;28;20186;-84
2021/12/10 06:52:41;;;;;;;7.63;4.90;;;3.70;99.90;;;;;;5055046;28;20228;-83
2021/12/10 06:55:07;;;;;;;8.23;4.83;;;3.70;99.90;;;;;;5043688;28;20187;-84
2021/12/10 06:57:34;;;;;;;7.80;4.90;;;3.70;99.90;;;;;;5045090;28;20297;-90
2021/12/10 07:00:01;;;;;;;11.93;4.53;;;3.80;99.90;;;;;;5034730;28;20182;-84
2021/12/10 07:02:26;;;;;;;10.53;5.00;;;3.80;99.90;;;;;;5036323;28;20172;-84
2021/12/10 07:04:52;;;;;;;10.67;4.93;;;3.70;99.90;;;;;;5035930;28;20178;-83
2021/12/10 07:07:18;;;;;;;10.37;4.23;;;3.70;99.90;;;;;;5034966;28;20206;-83
2021/12/10 07:09:43;;;;;;;10.87;5.30;;;3.70;99.90;;;;;;5034631;28;20246;-84
2021/12/10 07:12:09;;;;;;;10.17;5.00;;;3.70;99.90;;;;;;5035248;28;20270;-84
2021/12/10 07:14:35;;;;;;;8.97;5.33;;;3.60;99.90;;;;;;5034517;28;20179;-84
2021/12/10 07:17:01;;;;;;;9.63;5.10;;;3.60;99.90;;;;;;5034385;28;20234;-84
2021/12/10 07:19:28;;;;;;;13.37;5.93;;;3.70;99.90;;;;;;5034585;28;20638;-84
2021/12/10 07:21:54;;;;;;;12.33;5.47;;;3.70;99.90;;;;;;5034705;28;20175;-84
2021/12/10 07:24:20;;;;;;;12.27;5.80;;;3.60;99.90;;;;;;5034987;28;20175;-84
2021/12/10 07:26:48;;;;;;;10.53;5.97;;;3.60;99.90;;;;;;5034191;28;20565;-84
2021/12/10 07:29:14;;;;;;;9.37;5.83;;;3.60;99.90;;;;;;5034554;28;20649;-84
2021/12/10 07:31:42;;;;;;;9.30;5.67;;;3.70;99.90;;;;;;5034329;28;20171;-84
2021/12/10 07:34:08;;;;;;;9.77;5.33;;;3.70;99.90;;;;;;5033254;28;20214;-84
2021/12/10 07:36:34;;;;;;;12.97;4.93;;;3.70;99.90;;;;;;5034333;28;20195;-84
2021/12/10 07:39:00;;;;;;;10.83;5.20;;;3.70;99.90;;;;;;5035338;28;20209;-83
2021/12/10 07:41:27;;;;;;;10.87;5.50;;;3.70;99.90;;;;;;5034021;28;20175;-83
2021/12/10 07:43:53;;;;;;;6.90;5.43;;;3.70;99.90;;;;;;5033996;28;20182;-83
2021/12/10 07:46:19;;;;;;;8.57;4.70;;;3.70;99.90;;;;;;5034765;28;20202;-83
2021/12/10 07:48:48;;;;;;;8.93;6.63;;;3.70;99.90;;;;;;5033964;28;20193;-83
2021/12/10 07:51:22;;;;;;;8.77;5.00;;;3.60;99.90;;;;;;5035027;28;20201;-83
2021/12/10 07:53:51;;;;;;;14.67;6.07;;;3.60;99.90;;;;;;5033880;28;20232;-83
2021/12/10 07:56:17;;;;;;;12.37;6.57;;;3.50;99.90;;;;;;5033751;28;20232;-84
2021/12/10 07:58:43;;;;;;;15.83;6.27;;;3.50;99.90;;;;;;5033824;28;20602;-83
2021/12/10 08:01:15;;;;;;;11.07;6.57;;;3.40;99.90;;;;;;5033944;28;20206;-83
2021/12/10 08:03:41;;;;;;;12.13;6.13;;;3.40;99.90;;;;;;5034949;28;20226;-83
2021/12/10 08:06:07;;;;;;;10.03;5.87;;;3.40;99.90;;;;;;5033850;28;20203;-83
2021/12/10 08:08:33;;;;;;;11.73;6.60;;;3.40;99.90;;;;;;5033541;28;20250;-83
2021/12/10 08:10:58;;;;;;;12.53;5.60;;;3.40;99.90;;;;;;5033826;28;20229;-83
2021/12/10 08:13:24;;;;;;;12.87;6.20;;;3.40;99.90;;;;;;5034594;28;20179;-83
2021/12/10 08:15:51;;;;;;;10.33;4.80;;;3.30;99.90;;;;;;5033415;28;20207;-83
2021/12/10 08:18:17;;;;;;;21.23;13.40;;;3.30;99.90;;;;;;5033485;28;20678;-83
2021/12/10 08:20:42;;;;;;;11.33;8.00;;;3.20;99.90;;;;;;5033341;28;20275;-83
2021/12/10 08:23:08;;;;;;;9.70;7.80;;;3.20;99.90;;;;;;5033323;28;20178;-83
2021/12/10 08:25:35;;;;;;;11.60;7.67;;;3.20;99.90;;;;;;5033063;28;20638;-83
2021/12/10 08:28:02;;;;;;;13.13;8.77;;;3.00;99.90;;;;;;5033113;28;20722;-83
2021/12/10 08:30:29;;;;;;;13.17;8.70;;;3.00;99.90;;;;;;5032963;28;20274;-83
2021/12/10 08:32:57;;;;;;;11.87;8.30;;;2.90;99.90;;;;;;5033648;28;20182;-83
2021/12/10 08:35:29;;;;;;;15.23;8.47;;;2.80;99.90;;;;;;5032872;28;20193;-83
2021/12/10 08:37:56;;;;;;;14.37;7.23;;;2.80;99.90;;;;;;5032968;28;20590;-83
2021/12/10 08:40:29;;;;;;;13.30;7.87;;;2.80;99.90;;;;;;5032957;28;20190;-83
2021/12/10 08:42:55;;;;;;;10.83;8.13;;;2.80;99.90;;;;;;5033025;28;20167;-83
2021/12/10 08:45:22;;;;;;;14.80;9.03;;;2.70;99.90;;;;;;5032958;28;20191;-84
2021/12/10 08:47:53;;;;;;;11.83;8.27;;;2.70;99.90;;;;;;5033357;28;20286;-83
2021/12/10 08:50:23;;;;;;;14.27;8.37;;;2.80;99.90;;;;;;5033664;28;20170;-83
2021/12/10 08:52:51;;;;;;;11.43;8.27;;;2.80;99.90;;;;;;5033310;28;20218;-83
2021/12/10 08:55:17;;;;;;;12.33;8.00;;;2.90;99.90;;;;;;5032684;28;20274;-83
2021/12/10 08:57:46;;;;;;;10.27;7.47;;;2.90;99.90;;;;;;5032371;28;20236;-83
2021/12/10 09:00:13;;;;;;;12.03;7.70;;;2.90;99.90;;;;;;5032852;28;20183;-83
2021/12/10 09:02:39;;;;;;;12.63;8.73;;;3.00;99.90;;;;;;5032575;28;20269;-83
2021/12/10 09:05:09;;;;;;;10.63;7.63;;;3.00;99.90;;;;;;5032837;28;20214;-83
2021/12/10 09:07:36;;;;;;;14.77;8.20;;;3.10;99.90;;;;;;5032519;28;20610;-83
2021/12/10 09:10:07;;;;;;;12.63;7.70;;;3.20;99.90;;;;;;5033279;28;20186;-83
2021/12/10 09:12:32;;;;;;;11.23;8.17;;;3.10;99.90;;;;;;5032453;28;20183;-83
2021/12/10 09:15:00;;;;;;;11.93;8.10;;;3.10;99.90;;;;;;5032726;28;20183;-83
2021/12/10 09:17:28;;;;;;;10.90;7.80;;;3.30;99.90;;;;;;5032602;28;20211;-83
2021/12/10 09:19:56;;;;;;;13.70;7.57;;;3.30;99.90;;;;;;5032312;28;20178;-83
2021/12/10 09:22:23;;;;;;;11.83;7.63;;;3.40;99.90;;;;;;5032355;28;20183;-83
2021/12/10 09:24:51;;;;;;;13.47;7.40;;;3.50;99.90;;;;;;5032295;28;20274;-83
2021/12/10 09:27:16;;;;;;;10.43;6.90;;;3.60;99.90;;;;;;5032436;28;20271;-83
2021/12/10 09:29:45;;;;;;;8.30;7.00;;;3.60;99.90;;;;;;5033041;28;20248;-83
2021/12/10 09:32:14;;;;;;;11.27;7.10;;;3.60;99.90;;;;;;5033205;28;20206;-83
2021/12/10 09:34:40;;;;;;;9.03;6.40;;;3.70;99.90;;;;;;5032226;28;20237;-83
2021/12/10 09:37:07;;;;;;;8.77;7.17;;;3.70;99.90;;;;;;5031949;28;20210;-83
2021/12/10 09:39:33;;;;;;;10.43;6.73;;;3.60;99.90;;;;;;5032537;28;20265;-83
2021/12/10 09:42:00;;;;;;;12.10;7.10;;;3.80;99.90;;;;;;5032960;28;20225;-83
2021/12/10 09:44:26;;;;;;;9.20;6.10;;;3.90;99.90;;;;;;5032123;28;20233;-83
2021/12/10 09:46:55;;;;;;;9.63;5.90;;;4.00;99.90;;;;;;5031946;28;20302;-83
2021/12/10 09:49:25;;;;;;;7.83;6.27;;;3.90;99.90;;;;;;5032752;28;20211;-83
2021/12/10 09:51:56;;;;;;;9.53;5.90;;;3.80;99.90;;;;;;5032080;28;20175;-83
2021/12/10 09:54:25;;;;;;;7.63;5.40;;;4.00;99.90;;;;;;5032092;28;20171;-83
2021/12/10 09:56:55;;;;;;;8.27;6.27;;;3.90;99.90;;;;;;5032073;28;20245;-83
2021/12/10 09:59:22;;;;;;;10.10;6.40;;;4.00;99.90;;;;;;5036688;28;20230;-83
2021/12/10 10:01:53;;;;;;;9.03;6.80;;;3.80;99.90;;;;;;5035939;28;20193;-83
2021/12/10 10:04:22;;;;;;;9.40;6.67;;;3.70;99.90;;;;;;5037202;28;20163;-83
2021/12/10 10:06:56;;;;;;;10.00;6.80;;;3.80;99.90;;;;;;5036065;28;20237;-83
2021/12/10 10:09:23;;;;;;;7.50;6.67;;;3.90;99.90;;;;;;5036814;28;20195;-83
2021/12/10 10:12:01;;;;;;;9.80;6.60;;;3.90;99.90;;;;;;5036376;28;20178;-83
2021/12/10 10:14:27;;;;;;;12.47;7.47;;;3.90;99.90;;;;;;5036341;28;20229;-83
2021/12/10 10:16:53;;;;;;;12.60;7.47;;;3.90;99.90;;;;;;5035695;28;20195;-83
2021/12/10 10:19:19;;;;;;;13.20;7.80;;;4.00;99.90;;;;;;5035645;28;20179;-83
2021/12/10 10:21:50;;;;;;;13.67;7.10;;;4.00;99.90;;;;;;5035571;28;20237;-83
2021/12/10 10:24:18;;;;;;;11.97;7.20;;;4.00;99.90;;;;;;5035571;28;20171;-83
2021/12/10 10:26:56;;;;;;;9.83;7.13;;;4.10;99.90;;;;;;5036612;28;20225;-83
2021/12/10 10:29:26;;;;;;;11.87;8.27;;;4.20;99.90;;;;;;5036648;28;20155;-83
2021/12/10 10:31:56;;;;;;;11.33;7.57;;;4.30;99.90;;;;;;5036383;28;20167;-83
2021/12/10 10:34:23;;;;;;;9.47;7.43;;;4.40;99.90;;;;;;5035483;28;20171;-83
2021/12/10 10:36:49;;;;;;;11.93;7.17;;;4.30;99.90;;;;;;5035621;28;20206;-83
2021/12/10 10:39:21;;;;;;;9.60;7.40;;;4.40;99.90;;;;;;5036640;28;20254;-83
2021/12/10 10:41:51;;;;;;;12.03;8.10;;;4.50;99.90;;;;;;5037671;28;20185;-85
2021/12/10 10:44:17;;;;;;;9.97;7.73;;;4.40;99.90;;;;;;5037308;28;20250;-85
2021/12/10 10:46:45;;;;;;;11.20;8.30;;;4.30;99.90;;;;;;5037750;28;20260;-86
2021/12/10 10:49:34;;;;;;;12.03;7.53;;;4.20;99.90;;;;;;5037346;28;20224;-86
2021/12/10 10:52:31;;;;;;;12.83;7.60;;;4.20;99.90;;;;;;5037018;28;20167;-86
2021/12/10 10:55:14;;;;;;;13.27;7.73;;;4.30;99.90;;;;;;5034970;28;20191;-85
2021/12/10 10:57:55;;;;;;;12.70;6.40;;;4.40;99.90;;;;;;5034767;28;20214;-86
2021/12/10 11:00:32;;;;;;;9.13;7.03;;;4.40;99.90;;;;;;5035824;28;20171;-86
2021/12/10 11:03:04;;;;;;;9.07;6.40;;;4.50;99.90;;;;;;5034671;28;20191;-86
2021/12/10 11:05:32;;;;;;;11.60;7.50;;;4.50;99.90;;;;;;5035442;28;20170;-86
2021/12/10 11:08:03;;;;;;;7.70;6.90;;;4.50;99.90;;;;;;5034991;28;20258;-85
2021/12/10 11:10:38;;;;;;;13.63;7.40;;;4.60;99.90;;;;;;5034786;28;20183;-85
2021/12/10 11:13:13;;;;;;;10.27;7.47;;;4.60;99.90;;;;;;5034874;28;20170;-85
2021/12/10 11:15:52;;;;;;;11.13;8.03;;;4.70;99.90;;;;;;5034689;28;20229;-85
2021/12/10 11:18:18;;;;;;;9.87;7.87;;;4.70;99.90;;;;;;5034519;28;20195;-85
2021/12/10 11:20:45;;;;;;;15.13;8.00;;;4.70;99.90;;;;;;5035244;28;20174;-85
2021/12/10 11:23:12;;;;;;;10.93;7.90;;;4.80;99.90;;;;;;5034536;28;20182;-85
2021/12/10 11:25:49;;;;;;;13.90;7.17;;;4.80;99.90;;;;;;5034420;28;20195;-85
2021/12/10 11:28:18;;;;;;;11.63;8.00;;;4.70;99.90;;;;;;5035287;28;20170;-85
2021/12/10 11:30:51;;;;;;;10.00;7.30;;;4.70;99.90;;;;;;5034666;28;20279;-85
2021/12/10 11:33:25;;;;;;;10.37;7.60;;;4.40;99.90;;;;;;5050877;28;20212;-86
2021/12/10 11:35:53;;;;;;;10.67;7.43;;;4.30;99.90;;;;;;5054005;28;20201;-86
2021/12/10 11:38:24;;;;;;;10.07;7.30;;;4.20;99.90;;;;;;5053823;28;20260;-86
2021/12/10 11:41:04;;;;;;;10.40;7.03;;;4.20;99.90;;;;;;5040920;28;20179;-86
2021/12/10 11:44:07;;;;;;;9.33;7.07;;;4.30;99.90;;;;;;5034152;28;20171;-86
2021/12/10 11:46:47;;;;;;;11.13;7.30;;;4.30;99.90;;;;;;5033830;28;20206;-86
2021/12/10 11:49:27;;;;;;;11.03;7.53;;;4.30;99.90;;;;;;5034239;28;20169;-86
2021/12/10 11:52:01;;;;;;;9.60;7.13;;;4.30;99.90;;;;;;5033816;28;20171;-86
2021/12/10 11:54:37;;;;;;;7.73;6.50;;;4.40;99.90;;;;;;5033898;28;20254;-86
2021/12/10 11:57:10;;;;;;;8.63;6.30;;;4.50;99.90;;;;;;5044027;28;20364;-86
2021/12/10 11:59:40;;;;;;;9.83;6.87;;;4.50;99.90;;;;;;5037453;28;20196;-85
2021/12/10 12:02:19;;;;;;;9.07;6.27;;;4.40;99.90;;;;;;5051404;28;20178;-86
2021/12/10 12:04:54;;;;;;;7.93;6.47;;;4.30;99.90;;;;;;5053334;28;20166;-86
2021/12/10 12:07:40;;;;;;;10.13;6.33;;;4.40;99.90;;;;;;5053679;28;20209;-86
2021/12/10 12:10:26;;;;;;;10.87;6.60;;;4.40;99.90;;;;;;5053350;28;20257;-86
2021/12/10 12:13:09;;;;;;;10.17;6.67;;;4.30;99.90;;;;;;5053257;28;20268;-86
2021/12/10 12:15:40;;;;;;;8.10;6.67;;;4.30;99.90;;;;;;5054673;28;20212;-86
2021/12/10 12:18:08;;;;;;;8.80;6.77;;;4.20;99.90;;;;;;5053657;28;20293;-86
2021/12/10 12:20:43;;;;;;;8.63;6.47;;;4.20;99.90;;;;;;5053303;28;20170;-86
2021/12/10 12:26:16;;;;;;;9.97;6.27;;;4.30;99.90;;;;;;5054725;28;20205;-86
2021/12/10 12:28:54;;;;;;;7.73;5.90;;;4.30;99.90;;;;;;5052897;28;20186;-86
2021/12/10 12:31:28;;;;;;;9.67;6.90;;;4.30;99.90;;;;;;5053164;28;20202;-86
2021/12/10 12:34:05;;;;;;;7.23;6.30;;;4.30;99.90;;;;;;5053567;28;20170;-86
2021/12/10 12:36:42;;;;;;;11.27;6.33;;;4.30;99.90;;;;;;5052857;28;20209;-86
2021/12/10 12:39:22;;;;;;;9.97;6.07;;;4.30;99.90;;;;;;5053033;28;20217;-86
2021/12/10 12:41:48;;;;;;;10.37;6.43;;;4.00;99.90;;;;;;5052771;28;20625;-86
2021/12/10 12:44:21;;;;;;;9.73;5.73;;;3.90;99.90;;;;;;5053360;28;20208;-87
2021/12/10 12:46:54;;;;;;;11.47;5.73;;;3.80;99.90;;;;;;5054079;28;20277;-83
2021/12/10 12:49:20;;;;;;;11.33;6.60;;;3.70;99.90;;;;;;5054610;28;20178;-85
2021/12/10 12:52:06;;;;;;;10.00;6.10;;;3.60;99.90;;;;;;5055492;28;20269;-83
2021/12/10 12:54:34;;;;;;;9.20;6.10;;;3.60;99.90;;;;;;5054575;28;20524;-82
2021/12/10 12:57:03;;;;;;;9.10;5.47;;;3.60;99.90;;;;;;5054524;28;20213;-82
2021/12/10 12:59:32;;;;;;;7.40;5.33;;;3.60;99.90;;;;;;5054364;28;20276;-85
2021/12/10 13:02:01;;;;;;;8.30;5.20;;;3.60;99.90;;;;;;5053899;28;20186;-84
2021/12/10 13:04:41;;;;;;;7.83;5.60;;;3.70;99.90;;;;;;5054400;28;20208;-84
2021/12/10 13:07:17;;;;;;;8.77;5.50;;;3.80;99.90;;;;;;5052815;28;20194;-85
2021/12/10 13:09:53;;;;;;;7.83;5.20;;;3.90;99.90;;;;;;5054600;28;20653;-84
2021/12/10 13:15:28;;;;;;;7.63;5.90;;;3.90;99.90;;;;;;5050505;28;20200;-85
2021/12/10 13:17:59;;;;;;;6.53;5.10;;;3.90;99.90;;;;;;5053267;28;20288;-84